Latest Coastal Weather Observations for Mallacoota

IDV60701

Issued at 11:51 pm EDT Monday 2 March 2015 (issued every 10 minutes, with the page automatically refreshed every 10 minutes)

About coastal observations | Map of coastal stations | Coastal observations for VIC | Marine services | Other Formats
Station Details ID: 084084 Name: MALLACOOTA Lat: -37.60 Lon: 149.73 Height: 22.0 m
Data from the previous 72 hours. | See also: Recent months at Mallacoota
Date/Time
EDT
Temp

°C
Wind Pressure Rain
since 9am
mm
Weather Cloud Vis
km
Sea
Height
m
Swell
Dir
 
Speed
knots
Gust
knots
hPa Trend Height
m
Period
s
Dir
02/11:30pm 19.0 N 8 12 1015.4 - 0.0 - - - - - - -
02/11:00pm 18.7 N 8 12 1015.5 - 0.0 - - - - - - -
02/10:30pm 18.8 N 7 12 1016.2 - 0.0 - - - - - - -
02/10:00pm 19.0 N 8 13 1016.0 - 0.0 - - - - - - -
02/09:30pm 18.6 N 6 9 1015.8 - 0.0 - - - - - - -
02/09:00pm 18.6 N 6 8 1015.6 - 0.0 - - - - - - -
02/08:30pm 19.1 N 8 11 1015.6 - 0.0 - - - - - - -
02/08:00pm 19.3 N 7 12 1015.3 - 0.0 - - - - - - -
02/07:30pm 19.9 N 9 16 1015.5 - 0.0 - - - - - - -
02/07:00pm 20.2 NNE 12 20 1014.8 - 0.0 - - - - - - -
02/06:30pm 21.1 NNE 13 20 1015.1 - 0.0 - - - - - - -
02/06:00pm 21.3 NNE 13 20 1015.0 - 0.0 - - - - - - -
02/05:30pm 20.9 NNE 13 20 1015.5 - 0.0 - - - - - - -
02/05:00pm 20.7 NNE 13 20 1015.5 - 0.0 - - - - - - -
02/04:30pm 21.6 NNE 12 18 1016.0 - 0.0 - - - - - - -
02/04:00pm 21.1 NE 11 17 1016.1 - 0.0 - - - - - - -
02/03:30pm 19.8 ENE 13 19 1016.5 - 0.0 - - - - - - -
02/03:00pm 19.8 E 15 21 1016.5 - 0.0 - - - - - - -
02/02:30pm 19.6 E 15 21 1017.0 - 0.0 - - - - - - -
02/02:00pm 19.7 E 13 18 1017.4 - 0.0 - - - - - - -
02/01:30pm 19.7 E 10 16 1017.6 - 0.0 - - - - - - -
02/01:00pm 19.4 SE 7 9 1018.3 - 0.0 - - - - - - -
02/12:30pm 19.4 ESE 6 7 1018.6 - 0.0 - - - - - - -
02/12:00pm 19.9 ESE 6 7 1018.8 - 0.0 - - - - - - -
02/11:30am 19.0 E 6 7 1019.1 - 0.0 - - - - - - -
02/11:00am 18.5 E 6 7 1019.3 - 0.0 - - - - - - -
02/10:30am 18.8 E 5 7 1019.5 - 0.0 - - - - - - -
02/10:00am 18.6 ESE 4 5 1019.7 - 0.0 - - - - - - -
02/09:30am 17.6 NW 3 6 1020.0 - 0.0 - - - - - - -
02/09:00am 16.2 NNW 3 5 1019.7 - 1.2 - - - - - - -
02/08:30am 15.0 N 4 6 1019.7 - 1.2 - - - - - - -
02/08:00am 13.6 NW 4 6 1019.5 - 1.2 - - - - - - -
02/07:30am 12.2 WNW 4 6 1019.4 - 1.2 - - - - - - -
02/07:00am 12.5 N 2 3 1019.2 - 1.2 - - - - - - -
02/06:30am 13.0 WNW 3 5 1019.1 - 1.2 - - - - - - -
02/06:00am 13.5 WNW 4 6 1018.8 - 1.2 - - - - - - -
02/05:30am 13.4 NW 6 8 1018.5 - 1.2 - - - - - - -
02/05:00am 13.0 WNW 6 9 1018.4 - 1.2 - - - - - - -
02/04:30am 12.9 WNW 5 9 1018.0 - 1.2 - - - - - - -
02/04:00am 13.1 WNW 7 10 1017.7 - 1.2 - - - - - - -
02/03:30am 13.3 WNW 6 8 1017.8 - 1.2 - - - - - - -
02/03:00am 13.4 WNW 6 8 1017.5 - 1.2 - - - - - - -
02/02:30am 13.5 WNW 6 8 1017.6 - 1.2 - - - - - - -
02/02:00am 13.3 WNW 7 10 1017.7 - 1.2 - - - - - - -
02/01:30am 13.2 WNW 6 9 1017.6 - 1.2 - - - - - - -
02/01:00am 13.4 WNW 6 8 1017.5 - 1.2 - - - - - - -
02/12:30am 13.6 WNW 7 9 1017.6 - 1.2 - - - - - - -
02/12:00am 13.9 WNW 6 8 1017.4 - 1.2 - - - - - - -
 
Date/Time
EDT
Temp

°C
Wind Pressure Rain
since 9am
mm
Weather Cloud Vis
km
Sea
Height
m
Swell
Dir
 
Speed
knots
Gust
knots
hPa Trend Height
m
Period
s
Dir
01/11:30pm 14.2 WNW 6 8 1017.6 - 1.2 - - - - - - -
01/11:00pm 14.9 W 5 6 1017.7 - 1.2 - - - - - - -
01/10:30pm 15.1 W 5 7 1017.5 - 1.2 - - - - - - -
01/10:00pm 15.6 W 5 9 1017.4 - 1.2 - - - - - - -
01/09:30pm 15.9 WSW 5 9 1017.2 - 1.2 - - - - - - -
01/09:00pm 16.1 WSW 5 9 1016.7 - 1.2 - - - - - - -
01/08:30pm 16.3 WSW 6 9 1016.2 - 1.2 - - - - - - -
01/08:00pm 16.7 SW 7 11 1015.7 - 1.2 - - - - - - -
01/07:30pm 17.2 SW 8 13 1015.1 - 1.2 - - - - - - -
01/07:00pm 17.9 SW 9 14 1014.6 - 1.2 - - - - - - -
01/06:30pm 18.4 SW 14 21 1014.0 - 1.2 - - - - - - -
01/06:03pm 18.8 SW 16 26 1013.7 - 1.2 - - - - - - -
01/06:00pm 18.7 SW 17 26 1013.5 - 1.2 - - - - - - -
01/05:56pm 18.9 SW 15 25 1013.5 - 1.2 - - - - - - -
01/05:30pm 18.9 SW 13 20 1013.0 - 1.2 - - - - - - -
01/05:02pm 19.1 SW 15 26 1012.6 - 1.2 - - - - - - -
01/05:00pm 19.0 SW 14 24 1012.7 - 1.2 - - - - - - -
01/04:30pm 19.2 SW 12 25 1012.3 - 1.2 - - - - - - -
01/04:00pm 19.2 SW 13 21 1012.2 - 1.2 - - - - - - -
01/03:35pm 19.5 SW 15 25 1012.0 - 1.2 - - - - - - -
01/03:30pm 20.3 SW 13 24 1011.8 - 1.2 - - - - - - -
01/03:12pm 20.0 SW 15 25 1011.8 - 1.2 - - - - - - -
01/03:00pm 20.1 SW 14 26 1011.5 - 1.2 - - - - - - -
01/02:30pm 19.6 SW 15 26 1011.0 - 1.2 - - - - - - -
01/02:28pm 19.9 SW 15 25 1011.0 - 1.2 - - - - - - -
01/02:00pm 20.4 SW 12 20 1010.9 - 1.2 - - - - - - -
01/01:34pm 19.4 SW 15 25 1010.7 - 1.2 - - - - - - -
01/01:30pm 19.1 SW 14 25 1010.7 - 1.2 - - - - - - -
01/01:00pm 18.6 SW 8 17 1010.5 - 1.2 - - - - - - -
01/12:30pm 17.3 WSW 9 15 1010.3 - 1.2 - - - - - - -
01/12:00pm 16.8 WSW 10 18 1010.1 - 1.2 - - - - - - -
01/11:30am 16.6 SW 10 17 1009.8 - 1.2 - - - - - - -
01/11:00am 16.4 SW 9 15 1009.7 - 1.2 - - - - - - -
01/10:30am 16.4 SW 11 19 1009.1 - 1.2 - - - - - - -
01/10:00am 17.1 WSW 10 18 1008.7 - 1.2 - - - - - - -
01/09:30am 17.8 SSW 14 21 1006.8 - 0.8 - - - - - - -
01/09:00am 19.5 W 6 9 1007.1 - 1.2 - - - - - - -
01/08:30am 19.5 W 6 8 1007.2 - 0.6 - - - - - - -
01/08:00am 19.1 SSW 7 10 1005.3 - 0.2 - - - - - - -
01/07:30am 19.1 SSE 6 11 1004.2 - 0.2 - - - - - - -
01/07:00am 19.4 NNW 4 5 1003.7 - 0.0 - - - - - - -
01/06:30am 19.1 NNW 3 5 1002.7 - 0.0 - - - - - - -
01/06:00am 20.1 NNE 4 6 1002.5 - 0.0 - - - - - - -
01/05:30am 20.8 WSW 2 4 1003.2 - 0.0 - - - - - - -
01/05:00am 21.3 WSW 4 7 1004.1 - 0.0 - - - - - - -
01/04:30am 21.7 WSW 7 15 1004.0 - 0.0 - - - - - - -
01/04:00am 22.3 SW 8 15 1003.3 - 0.0 - - - - - - -
01/03:30am 23.2 WSW 9 15 1003.2 - 0.0 - - - - - - -
01/03:00am 24.1 SW 9 15 1002.9 - 0.0 - - - - - - -
01/02:30am 22.9 W 12 21 1002.4 - 0.0 - - - - - - -
01/02:00am 21.9 NNW 7 12 1000.9 - 0.0 - - - - - - -
01/01:30am 22.1 N 8 11 1001.3 - 0.0 - - - - - - -
01/01:00am 22.0 N 8 12 1001.8 - 0.0 - - - - - - -
01/12:30am 21.9 N 6 10 1002.7 - 0.0 - - - - - - -
01/12:00am 21.6 N 4 6 1002.9 - 0.0 - - - - - - -
 
Date/Time
EDT
Temp

°C
Wind Pressure Rain
since 9am
mm
Weather Cloud Vis
km
Sea
Height
m
Swell
Dir
 
Speed
knots
Gust
knots
hPa Trend Height
m
Period
s
Dir
28/11:30pm 21.5 NNW 5 8 1003.4 - 0.0 - - - - - - -
28/11:00pm 21.8 N 7 10 1003.9 - 0.0 - - - - - - -
28/10:30pm 22.1 NW 7 9 1004.8 - 0.0 - - - - - - -
28/10:00pm 22.3 NW 6 8 1005.2 - 0.0 - - - - - - -
28/09:30pm 22.6 NNW 6 8 1005.4 - 0.0 - - - - - - -
28/09:00pm 23.0 N 5 8 1005.3 - 0.0 - - - - - - -
28/08:30pm 23.3 N 6 8 1005.5 - 0.0 - - - - - - -
28/08:00pm 23.6 NNW 5 7 1005.7 - 0.0 - - - - - - -
28/07:30pm 22.6 N 4 5 1005.5 - 0.0 - - - - - - -
28/07:00pm 22.9 N 4 5 1005.3 - 0.0 - - - - - - -
28/06:30pm 23.8 NE 5 7 1005.1 - 0.0 - - - - - - -
28/06:00pm 23.7 NE 5 6 1004.9 - 0.0 - - - - - - -
28/05:30pm 23.0 NE 6 8 1005.0 - 0.0 - - - - - - -
28/05:00pm 23.4 NE 5 7 1004.9 - 0.0 - - - - - - -
28/04:30pm 23.2 NE 5 7 1004.9 - 0.0 - - - - - - -
28/04:00pm 23.4 NE 5 8 1005.0 - 0.0 - - - - - - -
28/03:30pm 23.4 ENE 5 7 1005.2 - 0.0 - - - - - - -
28/03:00pm 23.2 NE 5 6 1005.2 - 0.0 - - - - - - -
28/02:30pm 23.4 ENE 6 9 1005.6 - 0.0 - - - - - - -
28/02:00pm 26.9 N 6 8 1005.8 - 0.0 - - - - - - -
28/01:30pm 26.9 N 10 13 1005.9 - 0.0 - - - - - - -
28/01:00pm 25.3 N 10 15 1006.3 - 0.0 - - - - - - -
28/12:30pm 24.7 NNW 9 15 1006.6 - 0.0 - - - - - - -
28/12:00pm 23.9 N 9 14 1006.6 - 0.0 - - - - - - -
28/11:30am 23.1 N 8 13 1007.4 - 0.0 - - - - - - -
28/11:00am 23.0 N 8 12 1007.2 - 0.0 - - - - - - -
28/10:30am 22.9 N 8 12 1007.8 - 0.0 - - - - - - -
28/10:00am 22.3 N 9 13 1008.2 - 0.0 - - - - - - -
28/09:30am 21.6 NNE 5 8 1008.7 - 0.0 - - - - - - -
28/09:00am 20.2 NNW 6 8 1008.7 - 0.0 - - - - - - -
28/08:30am 19.2 NNW 7 9 1008.8 - 0.0 - - - - - - -
28/08:00am 18.7 NNW 4 6 1009.0 - 0.0 - - - - - - -
28/07:30am 17.8 NW 5 7 1009.0 - 0.0 - - - - - - -
28/07:00am 17.0 CALM 0 0 1009.0 - 0.0 - - - - - - -
28/06:30am 17.3 NW 2 6 1008.7 - 0.0 - - - - - - -
28/06:00am 17.1 CALM 0 0 1008.7 - 0.0 - - - - - - -
28/05:30am 16.7 CALM 0 0 1008.8 - 0.0 - - - - - - -
28/05:00am 16.9 CALM 0 0 1008.9 - 0.0 - - - - - - -
28/04:30am 17.0 CALM 0 0 1009.2 - 0.0 - - - - - - -
28/04:00am 16.7 CALM 0 0 1009.4 - 0.0 - - - - - - -
28/03:30am 16.7 CALM 0 0 1009.7 - 0.0 - - - - - - -
28/03:00am 16.9 CALM 0 1 1009.9 - 0.0 - - - - - - -
28/02:30am 17.3 W 2 4 1010.3 - 0.0 - - - - - - -
28/02:00am 17.0 W 4 6 1010.5 - 0.0 - - - - - - -
28/01:30am 17.0 CALM 0 0 1010.5 - 0.0 - - - - - - -
28/01:00am 17.1 NW 2 4 1010.7 - 0.0 - - - - - - -
28/12:30am 17.3 CALM 0 0 1010.7 - 0.0 - - - - - - -
28/12:00am 17.5 NW 3 5 1010.6 - 0.0 - - - - - - -

Other Formats:

Comma delimited format used in spreadsheet applications
http://www.bom.gov.au/fwo/IDV60701/IDV60701.94935.axf

JavaScript Object Notation format (JSON) in row-major order
http://www.bom.gov.au/fwo/IDV60701/IDV60701.94935.json